Time;durP1;ratioP1;P1;durP2;ratioP2;P2;SDS_P1;SDS_P2;PMS_P1;PMS_P2;Temp;Humidity;BMP_temperature;BMP_pressure;BME280_temperature;BME280_humidity;BME280_pressure;Samples;Min_cycle;Max_cycle;Signal;HPM_P1;HPM_P2
2023/06/22 00:02:13;;;;;;;14.67;8.03;;;;;20.80;97240.00;;;;5008668;28;20221;-72
2023/06/22 00:05:02;;;;;;;13.40;9.10;;;;;20.90;97226.00;;;;5001591;28;20228;-72
2023/06/22 00:07:51;;;;;;;12.87;8.83;;;;;20.90;97230.00;;;;5004347;28;20228;-72
2023/06/22 00:10:43;;;;;;;13.03;8.10;;;;;20.90;97233.00;;;;5007444;28;20217;-71
2023/06/22 00:13:32;;;;;;;12.30;8.13;;;;;20.60;97238.00;;;;5007455;28;20212;-71
2023/06/22 00:16:21;;;;;;;11.07;7.23;;;;;20.60;97233.00;;;;5009302;28;20198;-72
2023/06/22 00:19:11;;;;;;;13.77;7.90;;;;;20.80;97234.00;;;;5001076;28;20222;-72
2023/06/22 00:22:00;;;;;;;13.67;7.50;;;;;20.50;97233.00;;;;5007395;28;20210;-70
2023/06/22 00:24:49;;;;;;;15.93;6.90;;;;;20.70;97241.00;;;;5007614;28;20210;-71
2023/06/22 00:27:40;;;;;;;16.00;7.23;;;;;20.80;97242.00;;;;4994313;28;20269;-71
2023/06/22 00:30:29;;;;;;;13.93;8.43;;;;;20.70;97242.00;;;;5009157;28;20209;-72
2023/06/22 00:33:18;;;;;;;11.27;7.57;;;;;20.60;97241.00;;;;5002543;28;20210;-71
2023/06/22 00:36:07;;;;;;;15.70;7.50;;;;;20.80;97237.00;;;;5008086;28;20216;-72
2023/06/22 00:38:57;;;;;;;10.23;7.20;;;;;20.80;97243.00;;;;5009120;28;20575;-72
2023/06/22 00:41:46;;;;;;;12.20;8.30;;;;;20.90;97240.00;;;;5003556;28;20202;-71
2023/06/22 00:44:36;;;;;;;14.50;8.83;;;;;20.90;97240.00;;;;5006407;28;20221;-72
2023/06/22 00:47:26;;;;;;;12.20;7.80;;;;;20.60;97241.00;;;;5004677;28;20217;-71
2023/06/22 00:50:20;;;;;;;14.83;8.40;;;;;20.40;97234.00;;;;5005844;28;20700;-71
2023/06/22 00:53:11;;;;;;;25.67;7.90;;;;;20.70;97225.00;;;;5006162;28;20201;-72
2023/06/22 00:56:00;;;;;;;13.40;8.30;;;;;20.70;97233.00;;;;5006576;28;20284;-72
2023/06/22 00:58:52;;;;;;;21.30;7.40;;;;;20.50;97229.00;;;;5004406;28;20841;-71
2023/06/22 01:01:43;;;;;;;18.70;9.37;;;;;20.30;97228.00;;;;5001736;28;20208;-72
2023/06/22 01:04:37;;;;;;;13.57;6.70;;;;;20.20;97218.00;;;;4999725;28;20198;-71
2023/06/22 01:07:32;;;;;;;9.10;6.23;;;;;20.20;97219.00;;;;5000119;28;20237;-71
2023/06/22 01:10:27;;;;;;;17.50;10.83;;;;;20.10;97223.00;;;;5006774;28;20206;-71
2023/06/22 01:13:27;;;;;;;15.17;9.77;;;;;19.70;97226.00;;;;5006696;28;20217;-72
2023/06/22 01:16:20;;;;;;;15.70;7.70;;;;;19.90;97230.00;;;;5006485;28;20658;-71
2023/06/22 01:19:21;;;;;;;11.30;6.57;;;;;19.90;97229.00;;;;4998977;28;20237;-71
2023/06/22 01:22:15;;;;;;;14.33;7.33;;;;;20.10;97221.00;;;;5006606;28;20580;-72
2023/06/22 01:25:10;;;;;;;12.93;6.37;;;;;19.90;97217.00;;;;5000992;28;20213;-72
2023/06/22 01:28:07;;;;;;;21.20;8.60;;;;;20.00;97227.00;;;;5007511;28;20605;-72
2023/06/22 01:31:04;;;;;;;17.70;7.67;;;;;20.20;97221.00;;;;5008352;28;20217;-72
2023/06/22 01:33:56;;;;;;;10.67;6.80;;;;;20.10;97211.00;;;;4997758;28;20206;-72
2023/06/22 01:36:45;;;;;;;14.80;7.80;;;;;20.20;97210.00;;;;5006674;28;20681;-71
2023/06/22 01:39:34;;;;;;;17.13;8.27;;;;;20.30;97217.00;;;;5007638;28;20228;-72
2023/06/22 01:42:24;;;;;;;11.97;7.03;;;;;20.30;97215.00;;;;5004333;28;20206;-72
2023/06/22 01:45:13;;;;;;;11.47;8.33;;;;;20.20;97203.00;;;;5005889;28;20202;-72
2023/06/22 01:48:04;;;;;;;13.43;9.93;;;;;20.10;97203.00;;;;5006565;28;20226;-72
2023/06/22 01:50:54;;;;;;;13.80;7.90;;;;;19.90;97210.00;;;;5006832;28;20675;-72
2023/06/22 01:53:43;;;;;;;12.83;8.63;;;;;19.70;97202.00;;;;5007067;28;20198;-71
2023/06/22 01:56:32;;;;;;;12.67;8.63;;;;;19.80;97196.00;;;;5006137;28;20704;-71
2023/06/22 01:59:27;;;;;;;10.20;7.43;;;;;19.90;97207.00;;;;5008387;28;20225;-71
2023/06/22 02:02:18;;;;;;;13.37;8.30;;;;;19.60;97212.00;;;;5008564;28;20585;-72
2023/06/22 02:05:11;;;;;;;14.80;9.10;;;;;19.70;97206.00;;;;5011466;28;20700;-72
2023/06/22 02:08:06;;;;;;;17.50;9.37;;;;;20.00;97212.00;;;;5007667;28;20604;-72
2023/06/22 02:10:56;;;;;;;15.00;9.10;;;;;20.00;97204.00;;;;5006968;28;20210;-72
2023/06/22 02:13:46;;;;;;;14.63;8.53;;;;;20.10;97205.00;;;;5008194;28;20198;-72
2023/06/22 02:16:35;;;;;;;11.43;8.97;;;;;20.10;97202.00;;;;5011058;28;20198;-72
2023/06/22 02:19:25;;;;;;;14.47;9.97;;;;;19.70;97201.00;;;;5008942;28;20229;-72
2023/06/22 02:22:16;;;;;;;18.53;9.93;;;;;19.50;97210.00;;;;5009930;28;20202;-71
2023/06/22 02:25:05;;;;;;;18.87;10.13;;;;;19.80;97209.00;;;;5011388;28;20867;-72
2023/06/22 02:27:54;;;;;;;14.37;8.97;;;;;20.00;97215.00;;;;5006312;28;20230;-72
2023/06/22 02:30:43;;;;;;;12.93;8.60;;;;;19.90;97219.00;;;;5011280;28;20723;-72
2023/06/22 02:33:32;;;;;;;16.60;9.40;;;;;19.80;97222.00;;;;5008216;28;20210;-72
2023/06/22 02:36:22;;;;;;;9.63;8.67;;;;;20.00;97231.00;;;;5009184;28;20205;-72
2023/06/22 02:39:12;;;;;;;16.80;10.20;;;;;20.10;97224.00;;;;5002692;28;20230;-72
2023/06/22 02:42:02;;;;;;;14.30;9.13;;;;;20.20;97225.00;;;;5009708;28;20240;-72
2023/06/22 02:44:51;;;;;;;17.70;10.27;;;;;20.30;97232.00;;;;5009862;28;20214;-71
2023/06/22 02:47:40;;;;;;;16.90;10.37;;;;;20.20;97240.00;;;;5009485;28;20569;-72
2023/06/22 02:50:29;;;;;;;18.10;9.87;;;;;20.10;97238.00;;;;5012602;28;20213;-72
2023/06/22 02:53:19;;;;;;;16.00;9.03;;;;;20.20;97238.00;;;;5010502;28;20681;-72
2023/06/22 02:56:09;;;;;;;17.03;9.23;;;;;20.30;97234.00;;;;5010190;28;20214;-72
2023/06/22 02:59:00;;;;;;;13.00;9.63;;;;;20.10;97241.00;;;;5010579;28;20226;-72
2023/06/22 03:01:49;;;;;;;17.90;10.10;;;;;20.30;97241.00;;;;5006876;28;20212;-72
2023/06/22 03:04:38;;;;;;;19.73;9.90;;;;;20.30;97241.00;;;;5010829;28;20685;-72
2023/06/22 03:07:30;;;;;;;14.03;9.00;;;;;20.00;97238.00;;;;5010499;28;20565;-72
2023/06/22 03:10:19;;;;;;;17.23;9.47;;;;;20.00;97235.00;;;;5008227;28;20224;-71
2023/06/22 03:13:09;;;;;;;15.37;9.47;;;;;19.90;97237.00;;;;5003143;28;20674;-70
2023/06/22 03:15:58;;;;;;;14.30;9.80;;;;;19.90;97242.00;;;;5006599;28;20205;-71
2023/06/22 03:18:47;;;;;;;12.07;8.63;;;;;19.60;97235.00;;;;5010296;28;20222;-71
2023/06/22 03:21:38;;;;;;;14.63;8.93;;;;;19.80;97237.00;;;;5009445;28;20228;-71
2023/06/22 03:24:29;;;;;;;13.40;8.43;;;;;19.90;97244.00;;;;5009960;28;20208;-70
2023/06/22 03:27:18;;;;;;;13.33;7.87;;;;;19.70;97240.00;;;;5009736;28;20236;-70
2023/06/22 03:30:10;;;;;;;13.37;6.93;;;;;19.80;97240.00;;;;5007687;28;20218;-70
2023/06/22 03:32:59;;;;;;;14.10;8.73;;;;;19.80;97245.00;;;;5009741;28;20206;-71
2023/06/22 03:35:49;;;;;;;13.27;6.73;;;;;19.70;97253.00;;;;5005937;28;20579;-70
2023/06/22 03:38:39;;;;;;;10.03;6.97;;;;;19.80;97244.00;;;;5010166;28;20245;-70
2023/06/22 03:41:29;;;;;;;12.90;6.53;;;;;20.00;97248.00;;;;5007875;28;20209;-71
2023/06/22 03:44:18;;;;;;;12.27;6.83;;;;;19.80;97245.00;;;;5008565;28;20210;-70
2023/06/22 03:47:09;;;;;;;10.27;7.17;;;;;19.70;97248.00;;;;5008084;28;20229;-70
2023/06/22 03:49:58;;;;;;;12.90;6.80;;;;;19.70;97238.00;;;;5006023;28;20206;-71
2023/06/22 03:52:47;;;;;;;15.33;7.97;;;;;20.00;97242.00;;;;5003819;28;20293;-71
2023/06/22 03:55:36;;;;;;;13.37;8.30;;;;;20.00;97240.00;;;;5009805;28;20202;-70
2023/06/22 03:58:25;;;;;;;19.40;7.43;;;;;19.80;97236.00;;;;5009398;28;20237;-71
2023/06/22 04:01:16;;;;;;;10.23;7.80;;;;;19.80;97233.00;;;;5006821;28;20206;-70
2023/06/22 04:04:07;;;;;;;13.13;8.30;;;;;19.80;97235.00;;;;5005438;28;20206;-71
2023/06/22 04:06:56;;;;;;;10.80;7.80;;;;;19.90;97234.00;;;;5000101;28;20267;-72
2023/06/22 04:09:45;;;;;;;19.43;8.87;;;;;20.00;97234.00;;;;4991557;28;20206;-72
2023/06/22 04:12:34;;;;;;;12.13;7.63;;;;;20.10;97236.00;;;;4999068;28;20195;-72
2023/06/22 04:15:24;;;;;;;13.50;7.47;;;;;20.00;97233.00;;;;4995471;28;20209;-72
2023/06/22 04:18:13;;;;;;;12.03;6.53;;;;;19.40;97233.00;;;;4992650;28;20226;-72
2023/06/22 04:21:03;;;;;;;10.20;6.83;;;;;19.70;97229.00;;;;5003360;28;20327;-72
2023/06/22 04:23:52;;;;;;;18.00;11.43;;;;;19.60;97229.00;;;;4995420;28;20225;-71
2023/06/22 04:26:45;;;;;;;17.17;7.43;;;;;19.40;97227.00;;;;5005687;28;20695;-71
2023/06/22 04:29:34;;;;;;;12.93;6.97;;;;;19.30;97222.00;;;;5008505;28;20296;-71
2023/06/22 04:32:23;;;;;;;10.60;7.63;;;;;19.60;97226.00;;;;5004735;28;20206;-72
2023/06/22 04:35:13;;;;;;;10.27;7.97;;;;;19.90;97230.00;;;;4995673;28;20326;-71
2023/06/22 04:38:03;;;;;;;11.07;7.93;;;;;19.70;97234.00;;;;5003429;28;20225;-72
2023/06/22 04:40:53;;;;;;;13.27;7.97;;;;;20.00;97226.00;;;;4994632;28;20268;-71
2023/06/22 04:43:42;;;;;;;16.30;8.50;;;;;20.00;97230.00;;;;4997691;28;20234;-72
2023/06/22 04:46:31;;;;;;;14.57;9.37;;;;;20.00;97216.00;;;;4998510;28;20211;-72
2023/06/22 04:49:20;;;;;;;12.97;8.37;;;;;19.70;97224.00;;;;5004348;28;20603;-73
2023/06/22 04:52:11;;;;;;;14.90;8.57;;;;;19.90;97230.00;;;;5004854;28;20214;-72
2023/06/22 04:55:02;;;;;;;15.37;9.10;;;;;19.90;97221.00;;;;4997976;28;20217;-73
2023/06/22 04:57:51;;;;;;;16.17;9.87;;;;;20.40;97226.00;;;;4999304;28;20229;-71
2023/06/22 05:00:40;;;;;;;13.63;9.17;;;;;20.50;97216.00;;;;5002520;28;20207;-71
2023/06/22 05:03:29;;;;;;;15.57;9.50;;;;;20.50;97217.00;;;;5002560;28;20333;-73
2023/06/22 05:06:19;;;;;;;12.33;9.00;;;;;20.60;97218.00;;;;5007827;28;20214;-72
2023/06/22 05:09:08;;;;;;;15.27;9.30;;;;;20.20;97208.00;;;;5001054;28;20248;-72
2023/06/22 05:11:59;;;;;;;12.60;8.97;;;;;20.20;97202.00;;;;5002846;28;20678;-71
2023/06/22 05:14:48;;;;;;;11.53;8.13;;;;;20.30;97207.00;;;;4999026;28;20206;-73
2023/06/22 05:17:41;;;;;;;15.70;8.83;;;;;20.70;97199.00;;;;5007206;28;20701;-72
2023/06/22 05:20:30;;;;;;;17.17;8.87;;;;;20.90;97201.00;;;;4998107;28;20268;-70
2023/06/22 05:23:19;;;;;;;15.20;9.27;;;;;20.80;97188.00;;;;5001171;28;20649;-71
2023/06/22 05:26:09;;;;;;;14.03;8.77;;;;;20.50;97193.00;;;;5006306;28;20213;-72
2023/06/22 05:29:00;;;;;;;11.57;9.27;;;;;21.00;97198.00;;;;5005199;28;20272;-70
2023/06/22 05:31:49;;;;;;;11.47;9.07;;;;;21.20;97192.00;;;;4993604;28;20210;-70
2023/06/22 05:34:39;;;;;;;16.60;10.30;;;;;21.60;97190.00;;;;5006888;28;20715;-73
2023/06/22 05:37:30;;;;;;;15.03;9.70;;;;;21.70;97198.00;;;;5001856;28;20216;-72
2023/06/22 05:40:19;;;;;;;16.10;11.03;;;;;21.70;97192.00;;;;5006632;28;20551;-72
2023/06/22 05:43:08;;;;;;;14.97;12.17;;;;;21.70;97179.00;;;;5006771;28;20210;-72
2023/06/22 05:45:59;;;;;;;17.37;11.67;;;;;21.60;97180.00;;;;5009119;28;20217;-72
2023/06/22 05:48:48;;;;;;;16.83;10.27;;;;;21.80;97181.00;;;;5002242;28;20244;-73
2023/06/22 05:51:37;;;;;;;17.47;10.53;;;;;22.20;97179.00;;;;5007342;28;20214;-72
2023/06/22 05:54:26;;;;;;;14.20;11.10;;;;;22.40;97185.00;;;;5000261;28;20281;-71
2023/06/22 05:57:15;;;;;;;18.17;12.27;;;;;22.40;97179.00;;;;5010326;28;20217;-72
2023/06/22 06:00:10;;;;;;;21.67;13.37;;;;;22.70;97187.00;;;;5006946;28;20605;-73
2023/06/22 06:03:03;;;;;;;16.23;10.83;;;;;22.70;97181.00;;;;5002761;28;20220;-71
2023/06/22 06:05:52;;;;;;;19.23;12.03;;;;;23.10;97183.00;;;;5006624;28;20205;-72
2023/06/22 06:08:41;;;;;;;18.57;13.00;;;;;23.20;97177.00;;;;5008448;28;20702;-72
2023/06/22 06:11:30;;;;;;;20.40;12.17;;;;;23.30;97177.00;;;;4996672;28;20202;-73
2023/06/22 06:14:20;;;;;;;17.30;12.80;;;;;23.70;97173.00;;;;4997855;28;20209;-72
2023/06/22 06:17:09;;;;;;;20.07;11.43;;;;;23.60;97171.00;;;;5000343;28;20248;-72
2023/06/22 06:20:00;;;;;;;19.67;12.60;;;;;24.10;97160.00;;;;5003896;28;20221;-72
2023/06/22 06:22:50;;;;;;;24.37;13.30;;;;;24.50;97156.00;;;;5000913;28;20577;-72
2023/06/22 06:25:39;;;;;;;22.90;12.27;;;;;24.70;97160.00;;;;4997877;28;20268;-72
2023/06/22 06:28:28;;;;;;;19.87;13.00;;;;;24.90;97157.00;;;;5000238;28;20234;-72
2023/06/22 06:31:17;;;;;;;19.07;13.97;;;;;24.90;97154.00;;;;5000549;28;20585;-73
2023/06/22 06:34:06;;;;;;;17.20;12.90;;;;;25.30;97158.00;;;;4994203;28;20210;-73
2023/06/22 06:36:57;;;;;;;19.97;12.10;;;;;25.50;97164.00;;;;5006620;28;20201;-73
2023/06/22 06:39:46;;;;;;;23.27;15.30;;;;;25.70;97161.00;;;;4997228;28;20279;-73
2023/06/22 06:42:35;;;;;;;20.07;12.07;;;;;25.80;97146.00;;;;5008513;28;20229;-73
2023/06/22 06:45:26;;;;;;;21.60;13.30;;;;;25.90;97150.00;;;;5010504;28;20208;-73
2023/06/22 06:48:16;;;;;;;18.13;12.77;;;;;26.20;97145.00;;;;5009449;28;20232;-72
2023/06/22 06:51:05;;;;;;;21.93;12.83;;;;;26.30;97145.00;;;;4998682;28;20213;-72
2023/06/22 06:53:55;;;;;;;22.00;12.70;;;;;26.40;97143.00;;;;5008106;28;20697;-72
2023/06/22 06:56:48;;;;;;;21.30;13.17;;;;;26.50;97146.00;;;;4996729;28;20701;-72
2023/06/22 06:59:37;;;;;;;19.80;12.93;;;;;26.70;97150.00;;;;4991362;28;20230;-73
2023/06/22 07:02:27;;;;;;;18.23;11.60;;;;;26.80;97149.00;;;;5007804;28;20237;-73
2023/06/22 07:05:16;;;;;;;15.47;11.30;;;;;26.90;97145.00;;;;5008001;28;20210;-73
2023/06/22 07:08:05;;;;;;;18.27;12.27;;;;;26.90;97150.00;;;;4995526;28;20866;-72
2023/06/22 07:10:56;;;;;;;24.67;12.03;;;;;27.10;97147.00;;;;4994608;28;20229;-72
2023/06/22 07:13:45;;;;;;;28.80;14.50;;;;;27.20;97144.00;;;;4998693;28;20201;-73
2023/06/22 07:16:34;;;;;;;27.07;13.03;;;;;27.30;97145.00;;;;5003134;28;20214;-73
2023/06/22 07:19:26;;;;;;;21.10;13.07;;;;;27.20;97139.00;;;;4997612;28;20230;-73
2023/06/22 07:22:15;;;;;;;15.60;11.20;;;;;27.50;97139.00;;;;5005899;28;20205;-71
2023/06/22 07:25:09;;;;;;;16.50;12.23;;;;;27.70;97137.00;;;;4996924;28;20203;-72
2023/06/22 07:28:04;;;;;;;18.53;11.60;;;;;27.70;97142.00;;;;5004914;28;20230;-73
2023/06/22 07:30:53;;;;;;;24.87;13.67;;;;;28.10;97145.00;;;;5005215;28;20218;-73
2023/06/22 07:33:42;;;;;;;18.73;12.60;;;;;28.10;97136.00;;;;5001563;28;20315;-73
2023/06/22 07:36:31;;;;;;;15.40;10.87;;;;;28.00;97134.00;;;;4993932;28;20209;-72
2023/06/22 07:39:25;;;;;;;20.57;12.87;;;;;28.00;97131.00;;;;4993602;28;20228;-73
2023/06/22 07:42:18;;;;;;;18.87;12.33;;;;;28.40;97132.00;;;;5009024;28;20226;-73
2023/06/22 07:45:10;;;;;;;16.57;11.33;;;;;28.50;97142.00;;;;5001969;28;20199;-74
2023/06/22 07:47:59;;;;;;;13.83;10.57;;;;;28.80;97137.00;;;;5000307;28;20239;-74
2023/06/22 07:50:48;;;;;;;17.37;12.57;;;;;29.00;97138.00;;;;5007292;28;20754;-74
2023/06/22 07:53:37;;;;;;;13.43;11.13;;;;;29.00;97127.00;;;;4994629;28;20224;-74
2023/06/22 07:56:26;;;;;;;13.90;11.00;;;;;29.30;97140.00;;;;5009121;28;20846;-74
2023/06/22 07:59:16;;;;;;;16.87;10.23;;;;;29.50;97138.00;;;;5006508;28;20259;-74
2023/06/22 08:02:08;;;;;;;15.03;10.30;;;;;29.60;97133.00;;;;5006033;28;20207;-74
2023/06/22 08:04:57;;;;;;;17.63;10.83;;;;;29.70;97136.00;;;;4998446;28;20296;-75
2023/06/22 08:07:51;;;;;;;16.60;11.73;;;;;29.80;97129.00;;;;5000931;28;20267;-75
2023/06/22 08:10:40;;;;;;;15.23;10.93;;;;;30.00;97124.00;;;;5001021;28;20294;-75
2023/06/22 08:13:30;;;;;;;15.43;10.23;;;;;30.20;97122.00;;;;5001032;28;20208;-75
2023/06/22 08:16:19;;;;;;;13.60;8.93;;;;;30.60;97124.00;;;;4998791;28;20217;-75
2023/06/22 08:19:09;;;;;;;14.83;10.63;;;;;30.70;97119.00;;;;5005573;28;20228;-75
2023/06/22 08:21:58;;;;;;;12.90;10.13;;;;;30.40;97123.00;;;;5000985;28;20208;-75
2023/06/22 08:24:47;;;;;;;15.40;9.90;;;;;30.90;97121.00;;;;5002038;28;20203;-75
2023/06/22 08:27:36;;;;;;;12.30;10.47;;;;;30.60;97122.00;;;;4994396;28;20247;-75
2023/06/22 08:30:26;;;;;;;15.77;10.63;;;;;30.40;97122.00;;;;4991595;28;20238;-75
2023/06/22 08:33:14;;;;;;;23.37;10.70;;;27.70;99.90;31.00;97114.00;;;;5005684;28;20212;-75
2023/06/22 08:36:10;;;;;;;15.47;10.50;;;27.70;99.90;31.40;97113.00;;;;5005519;28;20581;-74
2023/06/22 08:39:01;;;;;;;13.87;10.67;;;27.80;99.90;31.90;97117.00;;;;5007510;28;20229;-75
2023/06/22 08:41:50;;;;;;;13.00;10.13;;;28.10;99.90;32.00;97111.00;;;;5002882;28;20246;-75
2023/06/22 08:44:38;;;;;;;10.73;8.70;;;28.30;99.90;31.60;97110.00;;;;5008163;28;20211;-73
2023/06/22 08:47:29;;;;;;;12.43;9.23;;;28.50;99.90;32.00;97112.00;;;;5006675;28;20197;-73
2023/06/22 08:50:18;;;;;;;12.40;8.67;;;28.60;99.90;32.30;97119.00;;;;5007337;28;20236;-73
2023/06/22 08:53:08;;;;;;;13.47;9.07;;;28.70;99.90;32.30;97120.00;;;;5006201;28;20587;-73
2023/06/22 08:55:57;;;;;;;20.95;8.57;;;28.80;99.90;32.60;97109.00;;;;5003751;28;20198;-73
2023/06/22 08:58:45;;;;;;;15.15;8.95;;;29.00;99.90;32.80;97106.00;;;;5004605;28;20216;-73
2023/06/22 09:01:34;;;;;;;14.73;9.30;;;29.20;99.90;32.80;97110.00;;;;5005342;28;20228;-73
2023/06/22 09:04:23;;;;;;;12.35;8.73;;;29.30;99.90;32.90;97107.00;;;;5006108;28;20215;-73
2023/06/22 09:07:12;;;;;;;12.55;8.57;;;29.40;99.90;32.90;97103.00;;;;5005304;28;20742;-73
2023/06/22 09:10:04;;;;;;;18.27;10.13;;;29.50;99.90;33.00;97103.00;;;;5003898;28;20232;-73
2023/06/22 09:12:53;;;;;;;13.30;9.13;;;29.60;99.90;33.10;97095.00;;;;4999332;28;20240;-73
2023/06/22 09:15:42;;;;;;;12.82;9.10;;;29.60;99.90;33.30;97095.00;;;;5005552;28;20205;-73
2023/06/22 09:18:31;;;;;;;14.75;8.82;;;29.80;99.90;32.50;97093.00;;;;5006555;28;20234;-74
2023/06/22 09:21:19;;;;;;;13.07;9.15;;;29.80;99.90;33.20;97094.00;;;;5011432;28;20695;-74
2023/06/22 09:24:09;;;;;;;14.63;9.88;;;29.80;99.90;33.50;97091.00;;;;5012171;28;20216;-74
2023/06/22 09:26:59;;;;;;;11.95;9.20;;;29.90;99.90;33.60;97089.00;;;;5001268;28;20231;-74
2023/06/22 09:29:48;;;;;;;16.07;10.33;;;30.10;99.90;33.40;97088.00;;;;5010320;28;20725;-74
2023/06/22 09:32:36;;;;;;;11.45;8.85;;;30.20;99.90;33.20;97092.00;;;;5003871;28;20205;-74
2023/06/22 09:35:25;;;;;;;14.93;9.70;;;30.20;99.90;32.50;97083.00;;;;5000653;28;20201;-74
2023/06/22 09:38:14;;;;;;;14.35;10.90;;;30.10;99.90;33.50;97089.00;;;;5008888;28;20231;-74
2023/06/22 09:41:03;;;;;;;12.00;9.70;;;30.10;99.90;33.50;97084.00;;;;4999112;28;20214;-74
2023/06/22 09:43:53;;;;;;;14.80;9.32;;;30.20;99.90;33.10;97079.00;;;;5004466;28;20307;-75
2023/06/22 09:46:44;;;;;;;14.38;9.68;;;30.20;99.90;33.50;97089.00;;;;5005518;28;20239;-74
2023/06/22 09:49:32;;;;;;;14.75;10.82;;;30.30;99.90;33.90;97079.00;;;;5005460;28;20692;-74
2023/06/22 09:52:33;;;;;;;18.60;10.13;;;30.40;99.90;34.10;97075.00;;;;5005122;28;20577;-74
2023/06/22 09:55:34;;;;;;;16.13;9.75;;;30.50;99.90;33.70;97066.00;;;;5010236;28;20204;-74
2023/06/22 09:58:23;;;;;;;11.93;10.27;;;30.70;99.90;34.20;97076.00;;;;5014441;23;20247;-87
2023/06/22 10:01:15;;;;;;;15.10;10.02;;;30.80;99.90;33.90;97072.00;;;;5007021;28;20216;-87
2023/06/22 10:04:04;;;;;;;11.65;10.40;;;30.90;99.30;34.10;97075.00;;;;5002194;28;20224;-87
2023/06/22 10:06:53;;;;;;;15.13;10.55;;;31.00;99.50;34.20;97072.00;;;;4982460;28;20208;-88
2023/06/22 10:09:41;;;;;;;16.02;10.48;;;31.00;99.70;34.70;97063.00;;;;4978031;28;20207;-87
2023/06/22 10:12:30;;;;;;;17.63;10.70;;;31.10;99.00;34.50;97059.00;;;;4987049;28;20206;-88
2023/06/22 10:15:19;;;;;;;19.45;11.30;;;31.20;96.80;34.40;97055.00;;;;4994060;28;20236;-87
2023/06/22 10:18:09;;;;;;;13.05;10.05;;;31.30;97.30;32.60;97052.00;;;;4980404;28;20289;-87
2023/06/22 10:20:58;;;;;;;18.02;10.40;;;31.10;96.70;33.00;97042.00;;;;4981373;28;20225;-87
2023/06/22 10:23:47;;;;;;;14.90;9.98;;;30.80;98.40;34.40;97042.00;;;;4990703;28;20198;-88
2023/06/22 10:26:37;;;;;;;14.23;10.40;;;30.90;98.60;34.70;97040.00;;;;4983996;28;20198;-87
2023/06/22 10:29:25;;;;;;;16.33;10.00;;;31.10;97.20;35.00;97044.00;;;;4991537;28;20228;-88
2023/06/22 10:32:14;;;;;;;12.35;9.70;;;31.40;97.80;35.70;97041.00;;;;4989959;28;20213;-88
2023/06/22 10:35:06;;;;;;;16.67;12.00;;;31.70;98.10;34.30;97038.00;;;;4992744;28;20226;-87
2023/06/22 10:37:56;;;;;;;14.30;10.90;;;31.80;96.10;34.20;97040.00;;;;4987527;28;20209;-87
2023/06/22 10:40:44;;;;;;;13.60;9.73;;;31.80;94.80;35.20;97030.00;;;;4985908;28;20229;-89
2023/06/22 10:43:33;;;;;;;19.75;11.23;;;31.80;95.70;35.70;97035.00;;;;4988669;28;20221;-88
2023/06/22 10:46:25;;;;;;;14.20;9.73;;;32.00;95.30;36.00;97027.00;;;;4989373;28;20205;-87
2023/06/22 10:49:14;;;;;;;15.55;10.98;;;32.20;96.80;36.10;97019.00;;;;4990375;28;20202;-87
2023/06/22 10:52:05;;;;;;;12.25;9.25;;;32.50;96.40;36.60;97014.00;;;;4987555;28;20214;-87
2023/06/22 10:54:53;;;;;;;15.10;9.55;;;32.70;95.90;36.40;97012.00;;;;4986878;28;20782;-87
2023/06/22 10:57:44;;;;;;;14.80;10.18;;;32.90;95.70;36.00;97014.00;;;;4990097;28;20199;-87
2023/06/22 11:00:32;;;;;;;13.82;10.57;;;32.90;94.80;36.70;97017.00;;;;4989161;28;20234;-88
2023/06/22 11:03:21;;;;;;;11.68;9.20;;;33.10;94.70;36.90;97015.00;;;;4989633;28;20201;-87
2023/06/22 11:06:10;;;;;;;17.10;11.05;;;33.20;94.20;36.60;96998.00;;;;4986964;28;20734;-87
2023/06/22 11:09:00;;;;;;;15.30;10.00;;;33.20;93.80;36.40;97003.00;;;;4990864;28;20391;-87
2023/06/22 11:11:54;;;;;;;13.82;10.20;;;33.20;93.30;35.30;97002.00;;;;4991919;28;20220;-87
2023/06/22 11:14:42;;;;;;;21.08;9.73;;;33.20;92.60;36.10;96997.00;;;;4990031;28;20602;-87
2023/06/22 11:17:31;;;;;;;16.27;9.85;;;33.00;93.50;36.20;97001.00;;;;4980616;28;20195;-88
2023/06/22 11:20:20;;;;;;;12.85;9.75;;;33.10;93.40;36.70;96999.00;;;;4993090;28;20222;-86
2023/06/22 11:23:09;;;;;;;16.02;10.65;;;33.30;93.00;37.20;97005.00;;;;4991887;28;20265;-87
2023/06/22 11:25:59;;;;;;;11.57;8.88;;;33.40;92.30;37.80;97000.00;;;;4985072;28;20229;-87
2023/06/22 11:28:49;;;;;;;16.13;9.50;;;33.70;92.40;37.90;96996.00;;;;4986449;28;20191;-87
2023/06/22 11:31:38;;;;;;;15.70;9.77;;;33.90;92.80;37.70;96993.00;;;;4989832;28;20245;-87
2023/06/22 11:34:27;;;;;;;11.80;10.00;;;34.10;91.00;37.30;96989.00;;;;4990208;28;20233;-87
2023/06/22 11:37:17;;;;;;;15.13;9.40;;;34.20;90.70;37.20;96996.00;;;;4991708;28;20207;-87
2023/06/22 11:40:08;;;;;;;14.18;9.32;;;34.10;91.10;37.60;96985.00;;;;4994829;28;20198;-87
2023/06/22 11:42:59;;;;;;;18.98;9.43;;;34.00;91.00;37.90;96984.00;;;;4987009;28;20206;-87
2023/06/22 11:45:47;;;;;;;14.82;9.75;;;34.20;91.60;37.30;96985.00;;;;4991801;28;20207;-86
2023/06/22 11:48:36;;;;;;;14.57;9.07;;;34.40;90.30;35.50;96986.00;;;;4988848;28;20226;-87
2023/06/22 11:51:25;;;;;;;17.92;9.25;;;33.80;89.10;37.20;96979.00;;;;4990938;28;20216;-87
2023/06/22 11:54:14;;;;;;;14.65;8.88;;;33.80;90.70;38.10;96967.00;;;;4998248;28;20233;-87
2023/06/22 11:57:03;;;;;;;11.55;9.40;;;34.10;91.10;36.50;96968.00;;;;4986728;28;20213;-85
2023/06/22 11:59:53;;;;;;;14.85;10.07;;;34.10;90.00;37.40;96982.00;;;;4990727;28;20908;-85
2023/06/22 12:02:42;;;;;;;19.77;10.45;;;34.20;90.20;37.10;96977.00;;;;4988161;28;20222;-87
2023/06/22 12:05:31;;;;;;;16.45;9.45;;;34.10;88.30;36.50;96974.00;;;;4990465;28;20710;-86
2023/06/22 12:08:20;;;;;;;16.90;9.20;;;33.90;88.60;35.90;96964.00;;;;5000195;28;20206;-89
2023/06/22 12:11:09;;;;;;;13.93;9.00;;;33.90;86.60;35.70;96959.00;;;;4987645;28;20774;-85
2023/06/22 12:14:01;;;;;;;11.65;9.75;;;33.70;86.20;35.40;96947.00;;;;4990453;28;20225;-86
2023/06/22 12:16:51;;;;;;;16.00;11.43;;;33.50;86.10;36.00;96944.00;;;;4990016;28;20213;-86
2023/06/22 12:19:40;;;;;;;15.35;9.68;;;33.50;86.70;34.90;96941.00;;;;4992084;28;20209;-85
2023/06/22 12:22:29;;;;;;;10.32;9.10;;;33.10;87.60;37.50;96935.00;;;;4992316;28;20225;-86
2023/06/22 12:25:18;;;;;;;15.68;9.32;;;33.50;90.50;35.60;96921.00;;;;4989106;28;20229;-90
2023/06/22 12:28:07;;;;;;;11.25;9.00;;;33.60;87.20;37.40;96926.00;;;;4992258;28;20197;-92
2023/06/22 12:30:56;;;;;;;14.35;9.50;;;33.80;88.50;38.60;96917.00;;;;4996778;28;20221;-91
2023/06/22 12:33:47;;;;;;;11.70;9.25;;;34.20;86.60;36.90;96938.00;;;;4986581;28;20210;-88
2023/06/22 12:36:36;;;;;;;13.60;10.35;;;34.40;85.10;35.60;96947.00;;;;4990354;28;20195;-89
2023/06/22 12:39:25;;;;;;;15.02;10.90;;;34.00;84.40;36.50;96924.00;;;;4988606;28;20233;-90
2023/06/22 12:42:14;;;;;;;13.23;10.00;;;33.70;86.80;38.60;96923.00;;;;4989203;28;20222;-89
2023/06/22 12:45:03;;;;;;;18.23;9.10;;;34.10;88.40;39.20;96925.00;;;;4980608;28;20416;-90
2023/06/22 12:47:52;;;;;;;17.83;9.90;;;34.50;86.70;40.00;96935.00;;;;4988983;28;20256;-90
2023/06/22 12:50:43;;;;;;;13.32;9.95;;;35.00;88.20;39.60;96935.00;;;;4987491;28;20289;-88
2023/06/22 12:53:31;;;;;;;10.57;9.38;;;35.50;86.50;40.20;96930.00;;;;4987170;28;20198;-90
2023/06/22 12:56:20;;;;;;;13.43;10.07;;;35.80;86.20;40.60;96937.00;;;;4989883;28;20203;-89
2023/06/22 12:59:09;;;;;;;11.10;9.30;;;36.20;84.90;40.70;96936.00;;;;4993506;28;20210;-90
2023/06/22 13:01:58;;;;;;;11.02;8.55;;;36.50;84.10;41.00;96932.00;;;;4993643;28;20290;-89
2023/06/22 13:04:47;;;;;;;13.55;9.48;;;36.70;82.90;40.90;96930.00;;;;4992332;28;20590;-90
2023/06/22 13:07:37;;;;;;;9.73;8.60;;;36.90;81.80;41.00;96936.00;;;;4994475;28;20205;-90
2023/06/22 13:10:26;;;;;;;13.32;9.18;;;37.00;80.80;40.30;96940.00;;;;4994396;28;20206;-90
2023/06/22 13:13:16;;;;;;;13.35;9.60;;;37.00;80.00;39.30;96936.00;;;;4991411;28;20218;-88
2023/06/22 13:16:05;;;;;;;11.10;9.85;;;36.90;77.50;39.70;96946.00;;;;4990867;28;20210;-89
2023/06/22 13:18:54;;;;;;;20.23;9.95;;;36.60;79.20;39.70;96932.00;;;;4988536;28;20214;-89
2023/06/22 13:21:42;;;;;;;19.00;10.10;;;36.50;80.20;40.20;96930.00;;;;4987828;28;20249;-89